SMRA60 UAOL 191500
AAXX 19151
60007 22681 23604 10206 20101 39981 40236 57024 82500 333 60007=
60060 32460 60114 10169 20138 40209 56013 86800 333 83813 83616 95300=
60101 32356 52507 10167 20114 40222 55000 84201 333 82708 83816=
60105 32458 51006 10160 20117 40214 57005 83800 333 83816 83620=
60106 32562 31607 10165 20103 40218 58001 82202 333 82820=
60107 32560 81404 10166 20135 40209 55007 82532 333 82623 83360 87070 95320=
60115 32462 83411 10140 20098 40186 55003 8687/ 333 81816 85650 86360=
60127 41556 82706 10102 20098 39605 40206 58003 76162 882// 333 88820=
60135 32456 62509 10161 20119 40218 53001 86600 333 83710 85626=
60141 32570 72805 10146 20092 39546 40225 57000 8327/ 333 83830 86360=
60150 32557 72807 10145 20103 39562 40213 55001 8528/ 333 85820 83360=
60155 32460 43207 10180 20126 40210 56001 84200 333 84816=
60156 47460 63007 10163 20132 40227 58001 70011 86200 333 86816=
60185 32470 33607 10177 20130 40222 56013 83500 333 83616=
60192 32558 63202 10142 20092 40225 55005 84270 333 84823 83360=
60195 32560 72219 10058 20024 38522 48536 53003 872// 333 87830 95540=
60210 32572 43618 10158 21037 38989 48508 57005 83202 333 83826=
60220 32460 50206 10179 20147 40231 57009 85500 333 85626=
60230 45558 63303 10170 20062 40208 58007 86200 333 86826=
60252 45960 21905 10201 20088 40191 58018 82030 333 82358=
60265 32560 33020 10168 21009 38880 48513 53001 82202 333 82830=
60285 32460 63618 10170 20138 40211 57008 86800 333 82813 85616=
60318 32560 70906 10171 20118 40211 53001 85502 333 85623 83070=
60340 32356 83009 10124 20111 40210 53003 888// 333 83707 85817 86620=
60563 42560 60614 10129 20022 39248 48464 56008 86200 333 86830=
60577 41640 4//// 10127 20056 39180 48468 55002 70600 84500 333 84640 95990=
60585 41956 02318 10182 21045 40117 56008 70700=
60603 42959 02514 10228 21047 40113 57013=
60638 42960 22614 10240 21043 40120 56017 82030 333 82360=
60729 26/// /0102 10160 20077 39978 40162 58008 333 59088 60007 91004 91106=
60731 32660 60806 10161 20073 30140 40147 58015 83532 333 83633 83460=
60732 26/// /0703 10151 20067 39544 40142 58013 333 59084 60007 91005 91105=
60739 32960 2//08 10170 21011 39325 40125 58015 82050 333 82360 91014 91114=
60742 32960 61110 10148 20102 30153 40155 58029 85082 333 83360=
60767 32560 40912 10179 20058 39988 40130 58022 84200 333 84820=
60772 26/// /1205 10173 20049 39878 40129 58025 333 59110 60007 91011 91115=
61053 42960 70804 10332 20010 39844 40094 80008 333 59014 87280=
61766 42960 70407 10317 20039 30060 40103 80001 333 59017 87075=
61769 42960 83604 10338 20198 3//// 4//// 80001 333 5//// 88075=
61781 42960 8//// 10330 20221 30016 40046 80001 333 59002 88075=
61989 21465 60711 10270 20244 40109 71582 84842 333 58033 69907 83817 83075=
64512 42560 20000 10296 20212 3//// 40/// 82100 333 5//// 82820 94919 95839=
64570 42460 6//// 10308 20231 39572 40063 84930 333 59016 84815 82920 86363 94949 95839=
64810 41457 72808 10308 20267 30051 40081 71022 8327/ 333 59017 83813 87363=
67005 24468 73412 10285 20239 40082 700// 333 59009 60007 90710 91122 555 60005=
67301 42580 40512 10234 20152 3//// 48/// 84200 333 5//// 94325=
68070 41960 01110 10325 20109 39104 48500 56016 70200 8/000 333 30/// 5///1=
68109 41680 70904 10320 20012 38272 4//// 57024 71722 84983 333 1//// 2//// 9//// 555 91016=
68155 46/// /0505 10342 21027 39147 48506 57020 333 10346 20327 91010=
68163 46/// /0403 10323 20101 38995 48511 57015 333 10338 20316 91011=
68172 46/// /1110 10336 20038 39301 48516 57015 333 10349 20333 91018=
68179 46/// /1010 10299 20041 39077 48528 57015 333 10313 20290 91017=
68183 46/// /1209 10315 20082 39421 48545 57011 333 10319 20306 91016=
68188 46/// /0803 10300 20056 39170 48520 57016 333 10313 20288 91008=
68189 46/// ///// 10269 20090 38992 48518 57013 333 10281 20258=
68196 46/// /1004 10330 20107 39571 48538 57016 333 10337 20321 91012=
68237 46/// /0103 10341 20042 38854 48493 58022 333 10368 20336 91008=
68241 46/// /1205 10343 21012 38954 48498 58018 333 10353 20333 91012=
68248 46/// /0102 10350 20040 38910 48509 58021 333 10351 20327 91007=
68249 46/// /1902 10320 20066 38744 48498 57018 333 10338 20317 91005=
68253 46/// /1103 10354 21003 39007 48504 58017 333 10368 20337 91006=
68255 46/// /3403 10328 20041 38830 48493 58017 333 10337 20320 91007=
68258 46/// /1202 10347 20081 38823 48507 57018 333 10355 20334 91004=
68260 46/// /0902 10311 21001 38610 48494 52478 333 10315 20298 91005=
68261 42770 12002 10312 20044 38471 48486 58013 81100 333 10317 20291 91006=
68267 42970 11404 10254 21047 38238 48501 57014 80001 333 10259 20249 91007=
68269 46/// /1203 1//// 2//// 38562 4//// 58013 333 1//// 2//// 91006=
68271 46/// /1603 10341 20011 38884 48507 57013 333 10351 20325 91008=
68274 46/// /2102 10311 20035 38592 48490 58015 333 10320 20295 91008=
68283 46/// /1206 10278 20068 38872 48522 57010 333 10301 20270 91013=
68285 46/// /0906 10232 21001 38136 48504 58011 333 10244 20232 91012=
68287 46/// /0907 10238 20096 38567 48504 58010 333 10251 20234 91011=
68289 46/// /0706 10289 20066 39134 48525 57012 333 10292 20283 91011=
68297 46/// /0604 10316 20166 39890 48568 57017 333 10332 20316 91010=
68299 46/// /1204 10250 20059 38934 48536 58010 333 10264 20250 91008 555 91019=
68329 46/// /3104 10370 20084 39034 48496 57025 333 10401 20370 91008=
68331 46/// /1512 10270 20067 38793 48485 57016 333 10358 20270 91019=
68333 46/// /3108 10290 20122 38654 48482 57023 333 10352 20290 91023=
68335 46/// /1809 10266 20132 38858 48479 57025 333 10360 20266 91020=
68341 46/// /0302 10312 20079 38510 48507 57017 333 10332 20306 91005=
68343 46/// /3004 10294 20051 38757 48489 58016 333 10346 20291 91008=
68345 46/// /3410 10326 20064 38639 48489 57022 333 10337 20303 91016=
68347 46/// /3004 10329 20058 38763 48603 58006 333 10339 20316 91008=
68348 46/// /2705 10333 2//// 38749 48527 58018 333 10345 20308 91008=
68349 46/// /3605 10307 20062 38482 48475 58017 333 10315 20296 91009=
68353 46/// ///// 10299 20048 38502 48483 57020 333 10314 20297=
68355 46/// /2607 10321 20052 38542 48484 58020 333 10334 20308 91012=
68361 46/// /0000 10289 20025 38367 48484 57015 333 10309 20287 91005=
68371 46/// /0304 10305 21006 38373 48523 58009 333 10317 20290 91010=
68376 46/// /1602 10268 21008 38230 48482 57011 333 10301 20265 91003=
68379 46/// /0305 10264 20119 39805 48556 57023 333 10296 20264 91011=
68382 46/// /0307 10300 21010 39331 48540 57013 333 10310 20294 91013 555 91014=
68384 46/// /0606 10337 20019 39709 48558 58015 333 10348 20334 91014=
68386 46/// ///// 10327 20110 39671 48632 56007 333 10345 20322=
68387 46/// ///// 10297 20079 38834 48506 57013 333 10308 20297=
68390 46/// /1102 10316 20117 39650 48632 57008 333 10328 20308 91007 555 91021=
68392 46/// /0808 10279 20090 38901 48510 58011 333 10294 20279 91013 555 91015=
68394 46/// /0705 10340 20090 39815 48585 57018 333 10351 20331 91008 555 91012=
68398 46/// /0608 10273 20164 39358 48524 57016 333 10298 20273 91015 555 91013=
68411 46/// /2106 10366 20053 39851 48544 57017 333 10401 20353 91014=
68429 46/// /2406 10318 20119 38658 48485 57017 333 10375 20315 91012=
68439 46/// /2809 10355 20044 38834 48472 58018 333 10364 20332 91014=
68443 46/// /2306 10304 20073 38567 48475 57010 333 10352 20296 91010=
68447 46/// /2907 10276 20082 38676 48477 57026 333 10355 20272 91017=
68449 46/// /3503 10279 20051 38364 48486 57020 333 10313 20279 91006=
68471 46/// /2107 10242 20084 38310 48486 57011 333 10288 20242 91011=
68474 46/// /3202 10195 20123 38609 48501 58008 333 10304 20180 91005=
68479 46/// ///// 10326 20056 38915 48498 57012 333 10391 20318=
68481 46/// /0105 10324 20096 39731 40083 57011 333 10336 20322 91009=
68485 46/// /0204 10285 20014 38600 48496 57010 333 10302 20284 91006=
68487 46/// /0707 10326 20091 38954 48498 57017 333 10351 20326 91014=
68490 46/// /0710 10288 20196 39990 48537 57003 333 10356 20288 91022=
68491 46/// /0311 10274 20196 30093 40102 57011 333 10309 20271 91018=
68492 46/// /0409 10285 20179 30045 48559 57007 333 10334 20285 91020=
68493 46/// /0412 10329 20023 39506 48542 57005 333 10349 20329 91017=
68494 46/// /0808 10298 20188 39940 40067 57013 333 10354 20296 91015=
68495 46/// /0415 10285 20182 30050 40091 57011 333 10326 20284 91024=
68513 46/// /1709 10200 20159 39999 40110 58008 333 10236 20190 91013=
68516 46/// /2711 10294 20150 39811 48541 57006 333 10346 20290 91017=
68523 46/// /2814 10372 21020 39038 48485 57016 333 10388 20370 91021=
68527 46/// /2512 10342 20092 39003 48470 58021 333 10371 20325 91017=
68541 46/// /3405 10337 20039 38585 48476 57023 333 10343 20320 91013=
68543 46/// /1715 10255 20091 38708 48484 56001 333 10343 20250 91022=
68549 46/// /1505 10238 20123 38573 48488 57015 333 10311 20210 91013=
68558 46/// /0505 10193 20090 38198 48509 57016 333 10257 20155 91016=
68573 46/// /2712 10193 20146 38843 48494 53008 333 10348 20193 91028=
68575 46/// /1809 10243 20192 39059 48496 56003 333 10359 20243 91014=
68577 46/// /0104 10165 20136 38578 48528 52010 333 10319 20157 91006=
68579 46/// /1604 10220 20197 39532 48511 53003 333 10303 20220 91007=
68581 46/// /1207 10302 20185 39321 48502 57011 333 10352 20302 91014=
68582 46/// /1011 10293 20183 39278 48505 57009 333 10355 20293 91016=
68583 46/// /0609 10266 20201 39965 40072 58011 333 10306 20266 91020=
68585 46/// /0507 10233 20191 30074 40091 56013 333 10260 20233 91015=
68587 46/// ///// 10231 20208 30080 40096 53002 333 10251 20227=
68589 46/// /3410 10217 20049 38243 48495 57006 333 10289 20217 91015=
68591 46/// /0000 10238 20204 39930 40105 53001 333 10278 20238 91010=
68592 46/// /0518 10262 20177 39953 40074 57015 333 10289 20257 91030=
68593 46/// /0510 1//// 2//// 30065 4//// 57011 333 1//// 2//// 91019=
68613 46/// /2404 10241 20169 39966 40074 58013 333 10244 20222 91009=
68619 46/// /2613 10288 20137 39266 48486 57006 333 10328 20288 91022=
68633 46/// /1308 10192 20145 38499 48493 52005 333 10309 20177 91011=
68647 46/// /0000 10274 20112 38893 48508 58013 333 10293 20272 91000=
68649 46/// /1407 10179 20130 38403 48517 56013 333 10281 20176 91015=
68651 46/// /1104 10211 20134 38551 48515 58005 333 10270 20158 91006=
68677 46/// /3402 1//// 2//// 30012 4//// 53016 333 1//// 2//// 91003=
68710 46/// /2605 10317 20163 30044 48541 58021 333 10320 20291 91012=
68711 46/// /2712 10343 20161 39938 40048 57015 333 10355 20343 91019=
68713 46/// /1605 10300 20186 39968 48552 57002 333 10334 20297 91013=
68715 46/// /1208 10333 20173 39951 48547 57006 333 10350 20331 91015=
68716 46/// /1409 10329 20162 39864 48541 57007 333 10361 20328 91018=
68717 46/// /3103 10351 20177 39913 48540 57011 333 10368 20351 91011=
68719 46/// /1708 10297 20153 39029 48497 57010 333 10332 20297 91013=
68723 46/// /1911 10275 20157 39350 48506 57008 333 10327 20275 91024=
68727 46/// /3513 10275 20121 39068 48473 58008 333 10356 20275 91019=
68737 46/// /1313 10314 20135 39198 48503 57005 333 10352 20314 91020=
68747 46/// /1410 10300 20189 39583 48537 57010 333 10332 20300 91017=
68809 46/// /1619 10275 20181 39944 48532 57015 333 10304 20275 91030=
68811 46/// /1719 10259 20174 30079 40087 57013 333 10289 20253 91027=
68812 46/// /2404 10180 20154 39949 48527 58011 333 10198 20180 91012=
68813 46/// /1318 10244 20175 30087 40089 57013 333 10269 20239 91030=
68815 46/// /1812 10312 20159 39559 48524 57006 333 10345 20311 91022=
68817 46/// /1825 10242 20173 30080 40092 57013 333 10250 20235 91042=
68819 46/// /1512 10239 20172 39976 48521 57017 333 10243 20229 91035=
68820 46/// /1911 10242 20191 30098 48551 57012 333 10268 20242 91028=
68821 46/// /1412 10261 20189 39881 48551 53001 333 10311 20261 91023=
68822 46/// /1512 10260 20177 39830 48538 57010 333 10297 20258 91028=
68823 46/// /1416 10306 20161 39474 48515 57015 333 10353 20305 91026=
68825 46/// /1412 10257 20167 39508 48533 55000 333 10308 20257 91021=
68827 46/// /1514 10271 20177 39746 48553 58001 333 10317 20266 91019=
68829 46/// /1403 10199 20189 39823 40128 58005 333 10253 20199 91010=
68833 46/// /1506 10239 20182 39483 48538 57008 333 10291 20238 91015=
68835 46/// /1708 10268 20190 30011 40119 56006 333 10309 20268 91014=
68837 46/// /1610 10246 20199 3//// 4//// 5//// 333 10325 20245 91015=
68839 46/// /2209 10247 20191 39939 48549 52006 333 10332 20247 91016=
68840 46/// /1613 10263 20185 39530 48531 56003 333 10317 20262 91019=
68841 46/// /1810 10269 20206 39952 48558 56000 333 10353 20269 91019=
68843 46/// /2305 10251 20220 30019 40115 56003 333 10323 20251 91013=
68844 46/// /2210 10249 20208 30049 40118 58002 333 10285 20249 91016=
68845 46/// ///// 10236 20202 30107 40110 58006 333 10271 20229=
68848 46/// /2005 10263 20205 30099 48564 51003 333 10301 20263 91012=
68849 46/// /1813 10237 20182 39398 48526 56004 333 10288 20237 91020=
68911 46/// /1222 10261 20181 30094 40102 58008 333 10288 20259 91040=
68912 46/// /1432 10233 20180 30103 40112 57010 333 10257 20231 91045=
68918 46/// /1413 10187 20170 30120 40136 58008 333 10196 20175 91018=
68921 46/// /1310 10220 20180 30145 40149 58002 333 10224 20219 91017=
68922 46/// /1208 10219 20191 39970 48560 56005 333 10230 20219 91015=
68923 46/// /1107 10222 20188 39966 48563 57001 333 10232 20222 91016=
68924 46/// /1915 10243 20196 30130 48583 58001 333 10264 20238 91023=
68925 46/// /1008 10210 20182 39793 48539 58003 333 10234 20210 91019=
68927 46/// /1212 10228 20200 30022 40141 58000 333 10273 20227 91020=
68931 46/// /2004 10218 20213 39979 40139 58007 333 10244 20217 91010=
68933 46/// /2505 10230 20216 30127 40135 57007 333 10256 20230 91007=
68935 46/// /1102 10227 20206 30072 40134 57007 333 10267 20226 91006=
68939 46/// /2409 10248 2//// 30114 40124 57007 333 10265 20248 91011=
68940 46/// /2110 10247 2//// 30100 40111 51001 333 10272 20247 91019=
68999 46/// /1617 10253 20181 30052 48543 58012 333 10269 20251 91029=



SMUS60 KWBC 191500
AAXX 19154
60001 22580 13617 10198 20133 30211 40249 56020 81100 333 60007=
60005 22680 70114 10201 20126 30207 40244 56016 87500 333 60007=
60010 26/70 /0518 10085 21139 37727 47176 57011 333 60007=
60015 26/65 /3120 10147 20119 39529 40243 58014 333 60007=
60020 26/70 /0209 10211 20114 30203 40246 58014 333 60007=
60025 22680 10719 10218 20118 30148 40238 56020 81500 333 60007=
60030 22565 23618 10201 20112 30182 40237 58014 82500 333 60007=
60035 22665 40217 10206 20114 30197 40232 56013 84800 333 60007=
60040 22675 60118 10208 20105 30212 40236 56010 86800 333 60007=
60320 26/70 /2703 10185 20113 30104 40208 55002 333 60007=
60338 21470 82803 10140 20119 30143 40209 55000 70262 8377/ 333 69907 81710 83824 85357=
60351 42558 43605 10155 20126 40164 53002 84200 333 84820 95900=
60353 42570 43605 10157 20123 40159 53001 84200 333 84820 91838 95900=
60355 42560 53208 10157 20109 40155 55005 82202 333 82830 84073 95900=
60360 42565 60310 10145 20110 40150 55002 81232 333 81823 85070 95900=
60369 42560 73206 10155 20130 40165 55002 85801 333 83826 91837=
60390 42565 63508 10157 20124 40178 55000 85832 333 83823 85646 95900=
60395 42660 43410 10154 20107 40179 56006 81230 333 81833 84360 95900=
60402 42460 50807 10162 20136 40165 53003 83202 333 81813 83820 95910=
60403 42665 53204 10168 20103 40156 56012 83202 333 83836 83075 95900=
60419 42660 53209 10131 20055 40156 57012 81502 333 81633 85070 95900=
60421 42660 50409 10132 20024 39109 48460 56018 84202 333 84833 95900=
60423 42665 63604 10123 20062 39174 48452 56011 83202 333 83840 85073 95900=
60425 42560 73606 10150 20092 40177 53008 85530 333 85626 83360 95900=
60430 42565 81007 10124 20066 40172 56005 82802 333 81820 87070 95900=
60437 42460 83204 10091 20056 38961 48470 56010 84202 333 84816 85070 95960=
60444 42665 63209 10129 20050 39065 48485 56017 82242 333 82833 84073 95900=
60445 42560 63210 10130 21005 38993 48477 55010 81232 333 81830 85073 95900=
60452 41560 80306 10154 20129 40169 58003 70262 85830 333 83620 83823=
60457 42558 63504 10146 20113 40178 55001 84230 333 84820 83360 95900=
60467 42560 72406 10143 20055 40136 57026 878// 333 85630 83833 95900=
60468 42970 40604 10149 20023 39192 48467 56013 81032 333 81360 84070 95900=
60475 42970 23404 10171 21005 39199 48471 56016 82032 333 82360 95900=
60490 42560 73405 10152 20105 40184 55001 86830 333 81823 86630 95900=
60492 42562 70608 10164 20127 40174 56008 85202 333 85826 83073 95900=
60507 42563 73612 10131 20091 40164 55003 86806 333 82820 85823 95900=
60511 42560 73415 10104 20048 39038 48481 56009 85232 333 85823 95900=
60514 42560 73606 10120 20047 39251 48497 56007 83530 333 83626 85360 95900=
60515 42560 71002 10132 20062 40155 57020 8123/ 333 81830 87360 95900=
60517 42565 83205 10161 20144 40192 53004 84230 333 84826 86360 95900=
60518 42560 83408 10153 20128 40173 53001 8457/ 333 84620 86360 95900=
60520 42558 83610 10126 20105 40178 55002 8382/ 333 82826 83630 86460 95970=
60522 42557 71402 10131 20097 40192 55001 85230 333 85826 83360 95970=
60525 42660 33109 10174 20058 40141 56028 81232 333 81840 95900=
60531 42560 83604 10148 20105 40190 55000 8423/ 333 84826 85360 95900=
60535 42565 63406 10097 21006 38797 48466 58010 81102 333 81830 86070 95900=
60536 42565 73610 10121 20072 39302 48499 55005 878// 333 82826 85630 95900=
60549 42556 60320 10118 20044 38894 48497 58010 83280 333 83830 84360 95900=
60550 42565 70110 10086 21028 38608 48465 56017 85270 333 85826 85360 95900=
60555 42960 00412 10175 20052 40114 56029=
60557 42565 70206 10100 21021 38827 48477 56010 82282 333 82833 84073 95900=
60559 42660 20712 10173 20040 40116 57025 81530 333 81633=
60560 41630 70410 10092 20001 38926 48477 56006 70722 83582 333 83633 95990=
60566 41958 50614 10151 21003 40122 56016 70711 80002 333 85073=
60571 41620 73524 10138 21004 39223 48491 56004 70722 84282 333 84833 83360 95990=
60580 42960 00000 10169 20009 40112 55016=
60581 42960 01904 10195 21003 40112 56015=
60590 42958 01504 10167 20064 40115 56017=
60602 41620 53213 10158 21016 40155 56007 70611 83530 333 83646 95990=
60607 41659 12719 10177 21034 40139 55006 70700 81100 333 81846=
60611 42958 32508 10247 21103 40125 56018 80002 333 83070=
60620 41957 02820 10190 21133 40152 56003 70700=
60630 42950 22517 10222 21020 40134 56021 80002 333 82075=
60640 42960 33607 10278 21079 40115 56017 80002 333 83070=
60656 42958 03005 10205 20023 40168 56011=
60670 42980 51605 10213 21024 39065 48509 56013 80002 333 85073 95900=
60680 42982 61807 10222 2//// 38642 48518 56010 80002 333 86073 95900=
60714 32565 73507 10143 20099 30149 40155 58006 82282 333 82820 84360 85070=
60720 32960 42103 10144 20102 30119 40154 58008 80000 333 84070=
60723 32570 31002 10154 20084 39967 40154 58014 81202 333 81826 83070=
60725 32565 50602 10153 20073 39977 40146 58020 82282 333 82820=
60728 26/// /1903 10155 20075 30059 40152 58010 333 59086 60007 91005 91113=
60735 32565 41604 10197 20021 30071 40141 58026 81202 333 81823 84070=
60738 32560 43604 10138 21006 38907 48484 56009 84200 333 84823=
60740 32660 71807 10180 20046 30141 40150 58016 81582 333 81640 83360=
60745 32660 50606 10182 20008 39765 40128 58033 83502 333 83633 83070=
60750 32560 41307 10142 20098 30126 40151 58022 82800 333 82820=
60760 32560 50711 10184 20023 30018 40120 58023 85800 333 83830 83633 91015 91119=
60764 32562 60514 10184 20066 30071 40122 58025 86200 333 86830=
60769 32660 41210 10167 20056 30132 40136 58026 83460 333 83633=
60770 32575 61305 10171 20054 39999 40136 58024 83280 333 83826 84360 05/18=
60775 32565 51404 10191 20045 39780 40126 58025 85200 333 85826=
60780 32956 21513 10219 21059 39817 40114 58020 81042 333 81360=
61017 42960 51406 10277 21021 39741 40155 80002 333 58001 85080=
61024 42960 61214 10285 21027 39565 40130 80002 333 59010 86080=
61036 42960 51002 10336 21030 39871 40109 80002 333 59005 85080=
61043 42960 51212 10302 21156 39667 40097 80002 333 59005 85080=
61045 41930 60602 10292 21030 39611 40108 7062/ 80008 333 59008 86280=
61049 42965 70804 10308 21052 39/// 40/// 80008 333 5//// 87280=
61052 42960 50804 10330 21040 39850 40101 80002 333 59010 85080=
61075 42960 71006 10336 21052 39793 40099 80008 333 59009 87280=
61080 41957 71410 10302 21027 39693 40113 7062/ 80008 333 59006 87280=
61085 42965 70806 10305 20001 39/// 40/// 80008 333 5//// 87280=
61090 41958 70406 10300 21080 39604 40102 70622 80008 333 59007 87280=
61091 42960 70406 10307 21015 39666 40122 80008 333 59007 87280=
61096 42965 70802 10305 21077 39728 40108 80008 333 59008 87280=
61099 42960 71404 10340 20074 39853 40079 80008 333 59011 87280=
61257 41958 00408 10320 20005 30058 40119 70600 333 59025=
61270 42960 00406 10325 20082 39737 40107 333 59015=
61272 42960 00404 10305 20026 3//// 4//// 333 5////=
61277 42960 10000 10338 20005 39784 40103 80002 333 59007 81075=
61291 41958 10604 10315 20016 39703 40111 70600 80002 333 59005 81075=
61293 42960 40406 10320 20050 39701 40110 80002 333 58001 84075=
61901 42482 71414 10203 20173 39650 40152 57016 878// 333 84814 87627=
61970 46/// /0303 10267 20232 30061 40072 333 59016=
61974 21468 42603 10279 20249 40100 71500 83202 333 58020 60007 83817=
61980 24667 /2812 10261 20236 40053 700// 333 58178 69987 90710 91119 555 60005=
61988 22470 70716 10270 20243 40102 86802 333 58031 60007 84818 83650 91129=
61990 21468 33506 10285 20229 40071 71511 83842 333 58104 60007 83815 91113=
61995 21468 70309 10240 20225 39603 71522 87800 333 58100 60007 85817 83650=
61996 26/// /2206 10146 20104 30244 40279 53008 333 4//// 60007 90710 91107 555 60005=
61997 26/// /3113 10160 20082 39983 40156 56009 333 4//// 60007 90710 91122 555 60005=
61998 26/// /2928 10104 20010 30021 40057 53009 333 59122 60007 90710 91138 555 60005=
63654 32575 52705 10301 20093 38818 48/// 81101 333 10322 59002 81824 85079=
63680 31559 20702 10290 20133 38733 48/// 70544 82900 333 10314 59007 82825 81927 555 10185=
63702 31550 63208 10287 20143 38547 48/// 70544 81136 333 10288 58000 81827 86280 555 10195=
63726 31558 81402 10220 20158 70544 8257/ 333 10237 82620 87462 555 10180=
63980 41460 80606 10252 20242 40109 78082 8693/ 333 58016 81913 86820 85356 943// 911//=
64450 41460 71802 10255 20226 39723 40075 76166 8497/ 333 59006 82816 83623 81930 87463 94968 95838=
64500 42470 32208 10306 20262 30070 40084 83900 333 59012 83815 81920 94962 95832=
64501 42465 32408 10295 20241 30079 40088 82902 333 59011 81813 81920 83073 94909 95839=
64507 42460 81804 10291 20244 39992 40087 888 333 5//// 83810 88630 94919 95839=
64510 42460 4//// 10294 20206 39416 40065 84100 333 59001 84815 94919 95839=
64550 42465 6//// 10310 20242 3//// 4//// 86800 333 5//// 84815 86630 94939 95839=
64551 42460 3//// 10334 20246 3//// 4//// 83900 333 5//// 82813 81920 94964 95834=
64556 42460 6//// 10300 20226 39503 40088 86300 333 59006 86815 82920 94969 95879=
65030 42960 70608 10310 20080 39330 40031 80008 333 58003 87280 91110=
65123 41957 71405 10355 20087 30029 40043 70522 333 55408 50412 59024 87280=
65201 41458 71710 10330 20229 30052 40101 70522 83508 333 55408 40873 58004 83614 85280 94468=
65208 42458 71609 10340 20185 39835 40088 84208 333 58004 84815 87280=
65271 41940 50904 10365 20017 30987 40084 70522 80008 333 58000 85280=
67217 42470 52209 10220 20175 38644 48508 84960 333 58010 94325=
67237 41465 8//// 10232 20229 40076 72055 885// 333 59006 94374=
67241 41580 73604 10272 20256 40037 71799 8493/ 333 59016 94398=
67273 41570 81203 10251 20238 40018 79552 8751/ 333 59018 94353=
67295 42480 61510 10253 20171 39337 48505 86800 333 59013 94380=
67323 42580 31410 10287 20179 40114 57013 83200 333 94320=
67335 32580 21807 10275 20199 40096 57012 82200 333 94320=
67341 42975 00711 10296 20182 40119 55033 333 94300=
68006 46/// /3608 10332 20151 38906 48501 57031 333 10342 20327 91011 555 91013=
68018 42689 40912 10347 20089 38854 48471 56031 83201 333 1//// 2//// 555 91010=
68026 41560 31003 10356 20142 38960 48/// 70100 83903 333 30/// 5///1 83630 81935=
68029 41660 41607 10345 20087 38958 48/// 56022 70222 84800 333 30/// 5///1 84635=
68110 41789 52003 10318 20049 38252 48460 57015 72922 82980 333 10354 20316 91007 555 91016=
68112 46/// /0110 10295 20071 38297 48472 57018 333 10340 20293 91016 555 91017=
68116 46/// /0706 10344 20086 38531 48480 58016 333 10380 20344 91013 555 20002 91015=
68148 41960 00912 10334 20077 38977 48499 57020 702// 8/000 333 30/// 5///1=
68174 41875 10811 10299 20025 38763 48497 57012 70500 81080 333 10316 20298 91019=
68176 46/// /1005 10317 20048 39108 48516 57015 333 10332 20312 91011=
68182 46/// /0703 10309 20100 39316 48532 58010 333 10328 20309 91008=
68184 46/// /1405 10270 20096 39043 48524 57007 333 10288 20264 91011=
68186 46/// /1405 10307 20119 39266 48539 57021 333 10316 20296 91010=
68190 46/// /0906 10324 20076 39396 48538 57012 333 10333 20320=
68192 42970 00805 10318 20097 39468 48578 57019 333 10327 20312 91009=
68212 46/// /2305 10405 20036 38854 48493 58018 333 10416 20387 91015 555 91012=
68240 41560 11007 10340 20022 38979 48490 57250 70200 81100 333 30/// 5///1 81830=
68242 42680 21102 10326 20078 38706 48496 58020 82400 333 10331 20310 91005=
68254 46/// /0903 10341 20011 38763 48505 58017 333 10352 20319 91013=
68263 42670 20504 10294 20058 38476 48498 58013 81102 333 10302 20287 91008=
68268 46/// /0704 10333 21050 38858 48515 58013 333 10349 20328 91011=
68290 42570 10909 10290 20061 39153 48526 5//// 81500 333 10306 20289 91012=
68296 46/// /1606 10337 20107 39083 4//// 57005 333 10356 20337 91013=
68312 42689 20000 10386 20010 38901 56023 82280 333 1//// 2//// 9//// 555 91012=
68322 46/// /0207 10341 20117 39073 48474 57012 333 10423 20341 91015=
68336 46/// /0904 10275 20100 38809 48490 57011 333 10350 20251 91011=
68338 46/// /3104 10317 20077 38735 48489 57021 333 10346 20317 91006=
68350 46/// /0102 10305 20073 38630 48486 58017 333 10349 20305 91004=
68351 46/// /1202 10295 20052 38421 48498 58015 333 10305 20283 91008=
68362 46/// /3603 10308 21004 38488 48496 57012 333 10319 20304 91006=
68368 42782 11006 10269 20043 38306 48500 57023 81100=
68380 46/// /1502 10279 21017 38344 48504 58012 333 10284 20270 91005=
68400 46/// /0712 10313 20171 30019 40090 57006 333 10360 20313 91022=
68408 46/// /1705 10199 20165 30091 40100 58008 333 10219 20199 91010=
68416 46/// /2708 10353 21018 38990 48494 57012 333 10360 20340 91015=
68424 42782 22109 10393 20012 39116 48481 58025 82100 333 10406 20373 91016=
68438 42782 72512 10315 20082 38774 48480 57017 8199/ 333 10347 20315 91017=
68442 42780 62307 10314 20038 38621 48480 57021 83273 333 10342 20311 91011=
68461 42680 42903 10270 20061 38303 48483 57017 84200 333 10286 20269 91005=
68478 46/// /3303 10305 20022 38799 48467 57006 333 10342 20305 91006=
68488 46/// /0409 10322 20060 39227 48512 57007 333 10342 20320 91015=
68512 42982 02414 10274 20095 38982 48495 58006 333 10309 20273 91020=
68524 46/// /2809 10371 20035 38989 48477 57022 333 10380 20360 91017=
68538 42782 62710 10339 20050 38672 48466 57020 85903 333 10349 20323 91020=
68542 46/// /2215 10261 20088 38517 48485 56005 333 10331 20254 91022=
68546 46/// /2423 10153 20113 38661 48508 56015 333 10321 20152 91041=
68572 46/// /3206 10212 20099 38392 48499 51003 333 10298 20207 91013=
68580 46/// /1307 10287 20186 38920 48499 57005 333 10344 20287 91011=
68588 46/// /0311 10265 20200 30070 40079 57017 333 10291 20265 91024=
68614 46/// /2409 10305 20164 30026 40073 57013 333 10331 20295 91018=
68618 42780 12709 10353 21004 38990 48485 58010 81200 333 10361 20345 91015=
68624 46/// /2003 10337 21003 38686 48459 57013 333 10354 20325 91007=
68648 46/// /2802 10156 20120 38259 48520 52006 333 10277 20152 91008=
68668 41650 80710 10224 20178 39299 48533 53007 79522 8497/ 333 10355 20224 91016=
68674 46/// /3203 1//// 2//// 30063 4//// 53015 333 1//// 2//// 91009=
68712 46/// /1818 10178 20145 30015 40088 57011 333 10193 20176 91023=
68714 46/// /2120 10289 20160 30034 48533 57013 333 10312 20288 91029=
68718 46/// /1406 10230 20186 39890 48552 57005 333 10239 20230 91013=
68722 46/// /1212 10259 20136 38511 48469 57006 333 10322 20259 91020=
68744 46/// /1614 10280 20130 39063 48497 58007 333 10328 20272 91022=
68752 46/// /1409 10238 20198 39448 48525 56004 333 10305 20238 91011=
68754 46/// /1708 10225 20187 39113 48509 53002 333 10331 20225 91014=
68828 41127 81416 10211 20206 39907 40142 56007 75855 886// 333 10249 91020=
68832 46/// /1313 10280 20158 39170 48516 58003 333 10326 20277 91021=
68842 42270 72114 10242 20218 30034 40114 58006 876//=
68906 42698 70811 10155 20078 30209 40274 57021 878// 333 10167 20146 91019 555 91027=
68916 46/// ///// 10199 20175 39854 40119 57008 333 10223 20199=
68920 46/// /1708 10225 20191 30147 40159 56001 333 10226 20219 91014=
68926 46/// /1410 10220 20192 39974 40150 56001 333 10242 20220 91017=
68928 46/// /1705 10216 20199 39979 40136 57003 333 10237 20216 91013=
68994 42498 72904 10067 20050 30147 40176 53002 8558/ 333 10089 20057 91006 555 20048 91017=